sensor_id;sensor_type;location;lat;lon;timestamp;P1;durP1;ratioP1;P2;durP2;ratioP2
68647;SDS011;55632;51.962;16.116;2023-07-22T00:00:35;4.05;;;2.85;;
68647;SDS011;55632;51.962;16.116;2023-07-22T00:05:37;5.97;;;2.80;;
68647;SDS011;55632;51.962;16.116;2023-07-22T00:10:42;4.90;;;1.98;;
68647;SDS011;55632;51.962;16.116;2023-07-22T00:15:44;5.82;;;2.20;;
68647;SDS011;55632;51.962;16.116;2023-07-22T00:20:45;8.18;;;3.63;;
68647;SDS011;55632;51.962;16.116;2023-07-22T00:25:46;5.53;;;2.92;;
68647;SDS011;55632;51.962;16.116;2023-07-22T00:30:48;18.75;;;5.30;;
68647;SDS011;55632;51.962;16.116;2023-07-22T00:35:49;11.95;;;5.20;;
68647;SDS011;55632;51.962;16.116;2023-07-22T00:40:53;8.80;;;4.05;;
68647;SDS011;55632;51.962;16.116;2023-07-22T00:46:10;4.35;;;3.72;;
68647;SDS011;55632;51.962;16.116;2023-07-22T00:51:17;4.53;;;3.50;;
68647;SDS011;55632;51.962;16.116;2023-07-22T00:56:22;8.52;;;4.55;;
68647;SDS011;55632;51.962;16.116;2023-07-22T01:01:28;3.95;;;2.53;;
68647;SDS011;55632;51.962;16.116;2023-07-22T01:06:37;5.13;;;3.60;;
68647;SDS011;55632;51.962;16.116;2023-07-22T01:11:46;8.68;;;3.03;;
68647;SDS011;55632;51.962;16.116;2023-07-22T01:16:55;11.57;;;3.63;;
68647;SDS011;55632;51.962;16.116;2023-07-22T01:22:04;14.80;;;4.93;;
68647;SDS011;55632;51.962;16.116;2023-07-22T01:27:12;14.90;;;5.15;;
68647;SDS011;55632;51.962;16.116;2023-07-22T01:32:16;15.25;;;5.50;;
68647;SDS011;55632;51.962;16.116;2023-07-22T01:37:19;6.82;;;4.22;;
68647;SDS011;55632;51.962;16.116;2023-07-22T01:42:26;10.38;;;4.00;;
68647;SDS011;55632;51.962;16.116;2023-07-22T01:47:38;8.13;;;3.75;;
68647;SDS011;55632;51.962;16.116;2023-07-22T01:52:48;5.32;;;3.05;;
68647;SDS011;55632;51.962;16.116;2023-07-22T01:58:00;5.10;;;3.03;;
68647;SDS011;55632;51.962;16.116;2023-07-22T02:03:07;16.85;;;3.97;;
68647;SDS011;55632;51.962;16.116;2023-07-22T02:08:12;7.45;;;4.00;;
68647;SDS011;55632;51.962;16.116;2023-07-22T02:13:20;7.30;;;2.95;;
68647;SDS011;55632;51.962;16.116;2023-07-22T02:18:21;14.68;;;4.85;;
68647;SDS011;55632;51.962;16.116;2023-07-22T02:23:25;11.40;;;5.30;;
68647;SDS011;55632;51.962;16.116;2023-07-22T02:28:34;8.05;;;4.85;;
68647;SDS011;55632;51.962;16.116;2023-07-22T02:33:44;7.68;;;4.72;;
68647;SDS011;55632;51.962;16.116;2023-07-22T02:38:51;8.05;;;4.68;;
68647;SDS011;55632;51.962;16.116;2023-07-22T02:44:09;5.80;;;4.50;;
68647;SDS011;55632;51.962;16.116;2023-07-22T02:49:53;7.28;;;4.75;;
68647;SDS011;55632;51.962;16.116;2023-07-22T02:55:48;4.97;;;4.40;;
68647;SDS011;55632;51.962;16.116;2023-07-22T03:01:07;8.75;;;4.65;;
68647;SDS011;55632;51.962;16.116;2023-07-22T03:06:14;5.75;;;4.22;;
68647;SDS011;55632;51.962;16.116;2023-07-22T03:11:20;10.63;;;5.18;;
68647;SDS011;55632;51.962;16.116;2023-07-22T03:16:27;7.82;;;4.10;;
68647;SDS011;55632;51.962;16.116;2023-07-22T03:21:29;11.23;;;4.20;;
68647;SDS011;55632;51.962;16.116;2023-07-22T03:26:36;9.00;;;4.13;;
68647;SDS011;55632;51.962;16.116;2023-07-22T03:31:46;6.07;;;4.22;;
68647;SDS011;55632;51.962;16.116;2023-07-22T03:36:54;7.75;;;4.60;;
68647;SDS011;55632;51.962;16.116;2023-07-22T03:42:02;7.93;;;4.22;;
68647;SDS011;55632;51.962;16.116;2023-07-22T03:47:10;4.40;;;3.78;;
68647;SDS011;55632;51.962;16.116;2023-07-22T03:52:15;7.43;;;3.90;;
68647;SDS011;55632;51.962;16.116;2023-07-22T03:57:29;9.55;;;4.03;;
68647;SDS011;55632;51.962;16.116;2023-07-22T04:02:34;4.05;;;3.65;;
68647;SDS011;55632;51.962;16.116;2023-07-22T04:07:37;5.88;;;3.80;;
68647;SDS011;55632;51.962;16.116;2023-07-22T04:12:46;4.65;;;3.10;;
68647;SDS011;55632;51.962;16.116;2023-07-22T04:17:53;5.93;;;3.05;;
68647;SDS011;55632;51.962;16.116;2023-07-22T04:23:02;3.67;;;3.00;;
68647;SDS011;55632;51.962;16.116;2023-07-22T04:28:07;4.28;;;2.92;;
68647;SDS011;55632;51.962;16.116;2023-07-22T04:33:13;4.25;;;3.00;;
68647;SDS011;55632;51.962;16.116;2023-07-22T04:38:14;5.40;;;3.40;;
68647;SDS011;55632;51.962;16.116;2023-07-22T04:43:15;7.70;;;3.70;;
68647;SDS011;55632;51.962;16.116;2023-07-22T04:48:18;8.00;;;3.60;;
68647;SDS011;55632;51.962;16.116;2023-07-22T04:53:21;13.68;;;4.20;;
68647;SDS011;55632;51.962;16.116;2023-07-22T04:58:22;4.45;;;3.03;;
68647;SDS011;55632;51.962;16.116;2023-07-22T05:03:24;4.95;;;3.80;;
68647;SDS011;55632;51.962;16.116;2023-07-22T05:08:26;5.70;;;3.53;;
68647;SDS011;55632;51.962;16.116;2023-07-22T05:13:27;5.97;;;3.80;;
68647;SDS011;55632;51.962;16.116;2023-07-22T05:18:28;4.10;;;3.13;;
68647;SDS011;55632;51.962;16.116;2023-07-22T05:23:29;5.45;;;3.70;;
68647;SDS011;55632;51.962;16.116;2023-07-22T05:28:30;6.72;;;3.47;;
68647;SDS011;55632;51.962;16.116;2023-07-22T05:33:31;5.72;;;3.90;;
68647;SDS011;55632;51.962;16.116;2023-07-22T05:38:31;5.55;;;3.80;;
68647;SDS011;55632;51.962;16.116;2023-07-22T05:43:32;5.82;;;3.78;;
68647;SDS011;55632;51.962;16.116;2023-07-22T05:48:33;5.55;;;4.05;;
68647;SDS011;55632;51.962;16.116;2023-07-22T05:53:34;3.85;;;3.20;;
68647;SDS011;55632;51.962;16.116;2023-07-22T05:58:35;3.20;;;2.90;;
68647;SDS011;55632;51.962;16.116;2023-07-22T06:03:36;7.13;;;3.35;;
68647;SDS011;55632;51.962;16.116;2023-07-22T06:08:37;5.97;;;3.40;;
68647;SDS011;55632;51.962;16.116;2023-07-22T06:13:37;5.00;;;3.28;;
68647;SDS011;55632;51.962;16.116;2023-07-22T06:18:38;3.83;;;3.28;;
68647;SDS011;55632;51.962;16.116;2023-07-22T06:23:41;3.72;;;2.72;;
68647;SDS011;55632;51.962;16.116;2023-07-22T06:28:42;4.68;;;2.80;;
68647;SDS011;55632;51.962;16.116;2023-07-22T06:33:43;2.60;;;2.40;;
68647;SDS011;55632;51.962;16.116;2023-07-22T06:38:43;4.57;;;2.67;;
68647;SDS011;55632;51.962;16.116;2023-07-22T06:43:44;3.97;;;2.15;;
68647;SDS011;55632;51.962;16.116;2023-07-22T06:48:45;3.30;;;2.13;;
68647;SDS011;55632;51.962;16.116;2023-07-22T06:53:46;4.53;;;2.30;;
68647;SDS011;55632;51.962;16.116;2023-07-22T06:58:47;2.65;;;2.10;;
68647;SDS011;55632;51.962;16.116;2023-07-22T07:03:48;2.58;;;1.90;;
68647;SDS011;55632;51.962;16.116;2023-07-22T07:08:49;2.58;;;1.92;;
68647;SDS011;55632;51.962;16.116;2023-07-22T07:13:50;2.25;;;2.05;;
68647;SDS011;55632;51.962;16.116;2023-07-22T07:18:51;3.95;;;2.00;;
68647;SDS011;55632;51.962;16.116;2023-07-22T07:23:52;2.80;;;1.63;;
68647;SDS011;55632;51.962;16.116;2023-07-22T07:28:54;2.38;;;1.55;;
68647;SDS011;55632;51.962;16.116;2023-07-22T07:33:55;3.60;;;1.50;;
68647;SDS011;55632;51.962;16.116;2023-07-22T07:38:56;1.75;;;1.50;;
68647;SDS011;55632;51.962;16.116;2023-07-22T07:43:57;3.47;;;1.60;;
68647;SDS011;55632;51.962;16.116;2023-07-22T07:48:59;3.63;;;1.40;;
68647;SDS011;55632;51.962;16.116;2023-07-22T07:54:01;3.53;;;1.50;;
68647;SDS011;55632;51.962;16.116;2023-07-22T07:59:04;1.70;;;1.60;;
68647;SDS011;55632;51.962;16.116;2023-07-22T08:04:06;3.15;;;1.60;;
68647;SDS011;55632;51.962;16.116;2023-07-22T08:09:08;2.85;;;1.80;;
68647;SDS011;55632;51.962;16.116;2023-07-22T08:14:11;3.05;;;1.80;;
68647;SDS011;55632;51.962;16.116;2023-07-22T08:19:13;2.72;;;2.03;;
68647;SDS011;55632;51.962;16.116;2023-07-22T08:24:14;2.92;;;2.15;;
68647;SDS011;55632;51.962;16.116;2023-07-22T08:29:15;2.20;;;1.85;;
68647;SDS011;55632;51.962;16.116;2023-07-22T08:34:16;5.85;;;2.40;;
68647;SDS011;55632;51.962;16.116;2023-07-22T08:39:17;2.67;;;1.88;;
68647;SDS011;55632;51.962;16.116;2023-07-22T08:44:20;3.55;;;1.90;;
68647;SDS011;55632;51.962;16.116;2023-07-22T08:49:25;5.97;;;2.00;;
68647;SDS011;55632;51.962;16.116;2023-07-22T08:54:27;2.00;;;1.85;;
68647;SDS011;55632;51.962;16.116;2023-07-22T08:59:29;5.90;;;2.47;;
68647;SDS011;55632;51.962;16.116;2023-07-22T09:04:30;6.10;;;2.50;;
68647;SDS011;55632;51.962;16.116;2023-07-22T09:09:31;3.90;;;2.47;;
68647;SDS011;55632;51.962;16.116;2023-07-22T09:14:33;2.47;;;2.08;;
68647;SDS011;55632;51.962;16.116;2023-07-22T09:19:35;4.00;;;2.35;;
68647;SDS011;55632;51.962;16.116;2023-07-22T09:24:36;2.72;;;2.50;;
68647;SDS011;55632;51.962;16.116;2023-07-22T09:29:38;2.65;;;2.45;;
68647;SDS011;55632;51.962;16.116;2023-07-22T09:34:54;4.20;;;2.65;;
68647;SDS011;55632;51.962;16.116;2023-07-22T09:39:56;3.88;;;2.40;;
68647;SDS011;55632;51.962;16.116;2023-07-22T09:44:57;2.88;;;2.42;;
68647;SDS011;55632;51.962;16.116;2023-07-22T09:49:57;5.00;;;2.60;;
68647;SDS011;55632;51.962;16.116;2023-07-22T09:54:58;5.32;;;2.50;;
68647;SDS011;55632;51.962;16.116;2023-07-22T09:59:59;2.47;;;2.28;;
68647;SDS011;55632;51.962;16.116;2023-07-22T10:05:01;5.35;;;2.40;;
68647;SDS011;55632;51.962;16.116;2023-07-22T10:10:04;7.40;;;2.35;;
68647;SDS011;55632;51.962;16.116;2023-07-22T10:15:07;9.90;;;2.42;;
68647;SDS011;55632;51.962;16.116;2023-07-22T10:20:10;3.67;;;2.88;;
68647;SDS011;55632;51.962;16.116;2023-07-22T10:25:19;3.58;;;2.28;;
68647;SDS011;55632;51.962;16.116;2023-07-22T10:30:20;3.28;;;2.58;;
68647;SDS011;55632;51.962;16.116;2023-07-22T10:35:22;3.13;;;2.13;;
68647;SDS011;55632;51.962;16.116;2023-07-22T10:40:25;3.58;;;2.33;;
68647;SDS011;55632;51.962;16.116;2023-07-22T10:45:29;3.55;;;2.40;;
68647;SDS011;55632;51.962;16.116;2023-07-22T10:50:48;4.38;;;2.63;;
68647;SDS011;55632;51.962;16.116;2023-07-22T11:06:29;4.53;;;2.87;;
68647;SDS011;55632;51.962;16.116;2023-07-22T11:16:38;7.18;;;2.50;;
68647;SDS011;55632;51.962;16.116;2023-07-22T11:21:39;6.95;;;2.63;;
68647;SDS011;55632;51.962;16.116;2023-07-22T11:26:41;4.57;;;2.38;;
68647;SDS011;55632;51.962;16.116;2023-07-22T11:31:42;5.22;;;2.75;;
68647;SDS011;55632;51.962;16.116;2023-07-22T11:36:46;3.17;;;2.45;;
68647;SDS011;55632;51.962;16.116;2023-07-22T11:41:48;7.65;;;3.20;;
68647;SDS011;55632;51.962;16.116;2023-07-22T11:46:59;4.70;;;2.80;;
68647;SDS011;55632;51.962;16.116;2023-07-22T11:52:11;2.80;;;2.13;;
68647;SDS011;55632;51.962;16.116;2023-07-22T11:57:18;6.30;;;2.45;;
68647;SDS011;55632;51.962;16.116;2023-07-22T12:02:21;6.05;;;3.92;;
68647;SDS011;55632;51.962;16.116;2023-07-22T12:07:33;16.80;;;10.95;;
68647;SDS011;55632;51.962;16.116;2023-07-22T12:12:36;3.78;;;2.28;;
68647;SDS011;55632;51.962;16.116;2023-07-22T12:22:46;6.22;;;3.20;;
68647;SDS011;55632;51.962;16.116;2023-07-22T12:27:46;4.85;;;2.63;;
68647;SDS011;55632;51.962;16.116;2023-07-22T12:32:47;4.28;;;3.00;;
68647;SDS011;55632;51.962;16.116;2023-07-22T12:37:48;2.80;;;2.60;;
68647;SDS011;55632;51.962;16.116;2023-07-22T12:42:49;4.18;;;2.88;;
68647;SDS011;55632;51.962;16.116;2023-07-22T12:47:50;6.13;;;2.10;;
68647;SDS011;55632;51.962;16.116;2023-07-22T12:52:51;3.00;;;2.70;;
68647;SDS011;55632;51.962;16.116;2023-07-22T12:57:55;4.45;;;3.47;;
68647;SDS011;55632;51.962;16.116;2023-07-22T13:02:59;2.63;;;2.33;;
68647;SDS011;55632;51.962;16.116;2023-07-22T13:07:59;5.57;;;4.45;;
68647;SDS011;55632;51.962;16.116;2023-07-22T13:13:01;5.20;;;4.20;;
68647;SDS011;55632;51.962;16.116;2023-07-22T13:18:02;5.15;;;2.90;;
68647;SDS011;55632;51.962;16.116;2023-07-22T13:23:03;4.10;;;2.80;;
68647;SDS011;55632;51.962;16.116;2023-07-22T13:28:05;8.10;;;6.18;;
68647;SDS011;55632;51.962;16.116;2023-07-22T13:33:09;4.13;;;3.33;;
68647;SDS011;55632;51.962;16.116;2023-07-22T13:38:12;13.90;;;4.80;;
68647;SDS011;55632;51.962;16.116;2023-07-22T13:43:15;9.98;;;2.90;;
68647;SDS011;55632;51.962;16.116;2023-07-22T13:48:15;4.57;;;2.67;;
68647;SDS011;55632;51.962;16.116;2023-07-22T13:53:16;2.78;;;2.38;;
68647;SDS011;55632;51.962;16.116;2023-07-22T13:58:17;5.22;;;2.75;;
68647;SDS011;55632;51.962;16.116;2023-07-22T14:03:18;5.40;;;3.10;;
68647;SDS011;55632;51.962;16.116;2023-07-22T14:08:20;4.85;;;2.63;;
68647;SDS011;55632;51.962;16.116;2023-07-22T14:13:24;11.57;;;3.45;;
68647;SDS011;55632;51.962;16.116;2023-07-22T14:18:26;2.85;;;2.38;;
68647;SDS011;55632;51.962;16.116;2023-07-22T14:23:29;5.57;;;2.60;;
68647;SDS011;55632;51.962;16.116;2023-07-22T14:28:45;3.22;;;2.53;;
68647;SDS011;55632;51.962;16.116;2023-07-22T14:33:47;5.53;;;2.95;;
68647;SDS011;55632;51.962;16.116;2023-07-22T14:38:55;3.20;;;2.70;;
68647;SDS011;55632;51.962;16.116;2023-07-22T14:43:59;4.15;;;2.63;;
68647;SDS011;55632;51.962;16.116;2023-07-22T14:49:17;4.25;;;2.60;;
68647;SDS011;55632;51.962;16.116;2023-07-22T14:54:31;2.70;;;2.50;;
68647;SDS011;55632;51.962;16.116;2023-07-22T14:59:32;2.67;;;2.42;;
68647;SDS011;55632;51.962;16.116;2023-07-22T15:04:38;3.90;;;2.20;;
68647;SDS011;55632;51.962;16.116;2023-07-22T15:09:39;6.38;;;2.42;;
68647;SDS011;55632;51.962;16.116;2023-07-22T15:14:40;3.30;;;2.70;;
68647;SDS011;55632;51.962;16.116;2023-07-22T15:19:41;4.50;;;3.00;;
68647;SDS011;55632;51.962;16.116;2023-07-22T15:24:45;5.30;;;2.90;;
68647;SDS011;55632;51.962;16.116;2023-07-22T15:29:49;7.15;;;3.80;;
68647;SDS011;55632;51.962;16.116;2023-07-22T15:34:50;5.63;;;3.15;;
68647;SDS011;55632;51.962;16.116;2023-07-22T15:39:53;4.88;;;3.10;;
68647;SDS011;55632;51.962;16.116;2023-07-22T15:44:55;3.70;;;2.85;;
68647;SDS011;55632;51.962;16.116;2023-07-22T15:49:58;3.72;;;2.67;;
68647;SDS011;55632;51.962;16.116;2023-07-22T15:55:00;6.82;;;3.35;;
68647;SDS011;55632;51.962;16.116;2023-07-22T16:00:07;4.65;;;3.22;;
68647;SDS011;55632;51.962;16.116;2023-07-22T16:05:10;5.95;;;3.00;;
68647;SDS011;55632;51.962;16.116;2023-07-22T16:10:11;5.18;;;3.30;;
68647;SDS011;55632;51.962;16.116;2023-07-22T16:15:15;5.90;;;3.38;;
68647;SDS011;55632;51.962;16.116;2023-07-22T16:20:17;5.28;;;3.47;;
68647;SDS011;55632;51.962;16.116;2023-07-22T16:25:23;6.03;;;4.07;;
68647;SDS011;55632;51.962;16.116;2023-07-22T16:30:26;6.57;;;4.47;;
68647;SDS011;55632;51.962;16.116;2023-07-22T16:35:32;4.82;;;3.90;;
68647;SDS011;55632;51.962;16.116;2023-07-22T16:40:33;7.60;;;4.70;;
68647;SDS011;55632;51.962;16.116;2023-07-22T16:45:35;19.38;;;4.75;;
68647;SDS011;55632;51.962;16.116;2023-07-22T16:50:36;6.05;;;3.53;;
68647;SDS011;55632;51.962;16.116;2023-07-22T16:55:38;4.35;;;3.22;;
68647;SDS011;55632;51.962;16.116;2023-07-22T17:00:41;4.85;;;4.00;;
68647;SDS011;55632;51.962;16.116;2023-07-22T17:05:48;7.30;;;4.78;;
68647;SDS011;55632;51.962;16.116;2023-07-22T17:10:49;9.35;;;5.43;;
68647;SDS011;55632;51.962;16.116;2023-07-22T17:15:51;5.15;;;3.38;;
68647;SDS011;55632;51.962;16.116;2023-07-22T17:20:52;10.68;;;4.97;;
68647;SDS011;55632;51.962;16.116;2023-07-22T17:26:02;8.05;;;3.95;;
68647;SDS011;55632;51.962;16.116;2023-07-22T17:31:06;6.53;;;3.50;;
68647;SDS011;55632;51.962;16.116;2023-07-22T17:36:12;3.75;;;3.38;;
68647;SDS011;55632;51.962;16.116;2023-07-22T17:41:13;9.20;;;4.03;;
68647;SDS011;55632;51.962;16.116;2023-07-22T17:46:14;11.30;;;4.05;;
68647;SDS011;55632;51.962;16.116;2023-07-22T17:51:15;18.42;;;4.97;;
68647;SDS011;55632;51.962;16.116;2023-07-22T17:56:18;8.23;;;4.25;;
68647;SDS011;55632;51.962;16.116;2023-07-22T18:01:19;11.23;;;4.70;;
68647;SDS011;55632;51.962;16.116;2023-07-22T18:06:20;13.52;;;4.57;;
68647;SDS011;55632;51.962;16.116;2023-07-22T18:11:25;10.00;;;7.60;;
68647;SDS011;55632;51.962;16.116;2023-07-22T18:16:26;9.48;;;6.75;;
68647;SDS011;55632;51.962;16.116;2023-07-22T18:21:31;13.20;;;9.60;;
68647;SDS011;55632;51.962;16.116;2023-07-22T18:26:31;19.27;;;9.07;;
68647;SDS011;55632;51.962;16.116;2023-07-22T18:31:32;12.25;;;8.95;;
68647;SDS011;55632;51.962;16.116;2023-07-22T18:36:33;12.68;;;6.63;;
68647;SDS011;55632;51.962;16.116;2023-07-22T18:41:35;9.90;;;5.28;;
68647;SDS011;55632;51.962;16.116;2023-07-22T18:46:36;9.48;;;4.75;;
68647;SDS011;55632;51.962;16.116;2023-07-22T18:51:42;9.90;;;5.60;;
68647;SDS011;55632;51.962;16.116;2023-07-22T18:56:43;8.52;;;6.03;;
68647;SDS011;55632;51.962;16.116;2023-07-22T19:01:44;9.93;;;5.72;;
68647;SDS011;55632;51.962;16.116;2023-07-22T19:06:49;13.35;;;7.65;;
68647;SDS011;55632;51.962;16.116;2023-07-22T19:11:51;12.88;;;6.22;;
68647;SDS011;55632;51.962;16.116;2023-07-22T19:16:53;7.72;;;4.47;;
68647;SDS011;55632;51.962;16.116;2023-07-22T19:21:55;10.48;;;5.00;;
68647;SDS011;55632;51.962;16.116;2023-07-22T19:26:56;34.80;;;8.55;;
68647;SDS011;55632;51.962;16.116;2023-07-22T19:31:57;53.17;;;13.05;;
68647;SDS011;55632;51.962;16.116;2023-07-22T19:36:59;57.88;;;17.77;;
68647;SDS011;55632;51.962;16.116;2023-07-22T19:42:00;71.45;;;20.33;;
68647;SDS011;55632;51.962;16.116;2023-07-22T19:47:01;24.98;;;9.27;;
68647;SDS011;55632;51.962;16.116;2023-07-22T19:52:06;43.22;;;13.90;;
68647;SDS011;55632;51.962;16.116;2023-07-22T19:57:18;50.45;;;16.40;;
68647;SDS011;55632;51.962;16.116;2023-07-22T20:02:21;25.52;;;11.68;;
68647;SDS011;55632;51.962;16.116;2023-07-22T20:07:22;5.93;;;4.82;;
68647;SDS011;55632;51.962;16.116;2023-07-22T20:12:23;6.85;;;4.28;;
68647;SDS011;55632;51.962;16.116;2023-07-22T20:17:26;6.57;;;5.13;;
68647;SDS011;55632;51.962;16.116;2023-07-22T20:22:27;6.57;;;5.13;;
68647;SDS011;55632;51.962;16.116;2023-07-22T20:27:31;4.65;;;3.65;;
68647;SDS011;55632;51.962;16.116;2023-07-22T20:32:37;33.25;;;6.53;;
68647;SDS011;55632;51.962;16.116;2023-07-22T20:37:39;11.20;;;4.57;;
68647;SDS011;55632;51.962;16.116;2023-07-22T20:42:41;16.45;;;5.45;;
68647;SDS011;55632;51.962;16.116;2023-07-22T20:47:45;9.27;;;5.55;;
68647;SDS011;55632;51.962;16.116;2023-07-22T20:52:46;8.88;;;5.57;;
68647;SDS011;55632;51.962;16.116;2023-07-22T20:57:47;9.43;;;5.05;;
68647;SDS011;55632;51.962;16.116;2023-07-22T21:02:48;8.60;;;6.00;;
68647;SDS011;55632;51.962;16.116;2023-07-22T21:07:49;7.95;;;5.82;;
68647;SDS011;55632;51.962;16.116;2023-07-22T21:12:50;7.50;;;5.45;;
68647;SDS011;55632;51.962;16.116;2023-07-22T21:17:51;4.55;;;4.07;;
68647;SDS011;55632;51.962;16.116;2023-07-22T21:22:52;8.10;;;5.72;;
68647;SDS011;55632;51.962;16.116;2023-07-22T21:27:56;10.25;;;5.35;;
68647;SDS011;55632;51.962;16.116;2023-07-22T21:32:57;10.93;;;6.20;;
68647;SDS011;55632;51.962;16.116;2023-07-22T21:37:58;9.60;;;5.90;;
68647;SDS011;55632;51.962;16.116;2023-07-22T21:42:59;12.35;;;5.13;;
68647;SDS011;55632;51.962;16.116;2023-07-22T21:48:01;11.40;;;5.72;;
68647;SDS011;55632;51.962;16.116;2023-07-22T21:53:02;9.45;;;5.82;;
68647;SDS011;55632;51.962;16.116;2023-07-22T21:58:03;10.70;;;6.10;;
68647;SDS011;55632;51.962;16.116;2023-07-22T22:03:05;6.22;;;4.35;;
68647;SDS011;55632;51.962;16.116;2023-07-22T22:08:11;9.15;;;6.47;;
68647;SDS011;55632;51.962;16.116;2023-07-22T22:13:12;10.70;;;6.65;;
68647;SDS011;55632;51.962;16.116;2023-07-22T22:18:22;10.40;;;7.10;;
68647;SDS011;55632;51.962;16.116;2023-07-22T22:23:26;11.85;;;6.80;;
68647;SDS011;55632;51.962;16.116;2023-07-22T22:28:29;8.50;;;6.10;;
68647;SDS011;55632;51.962;16.116;2023-07-22T22:33:30;6.85;;;5.00;;
68647;SDS011;55632;51.962;16.116;2023-07-22T22:38:32;7.60;;;5.88;;
68647;SDS011;55632;51.962;16.116;2023-07-22T22:43:35;8.27;;;5.35;;
68647;SDS011;55632;51.962;16.116;2023-07-22T22:48:42;12.20;;;5.60;;
68647;SDS011;55632;51.962;16.116;2023-07-22T22:53:43;9.55;;;6.45;;
68647;SDS011;55632;51.962;16.116;2023-07-22T22:58:44;9.57;;;6.05;;
68647;SDS011;55632;51.962;16.116;2023-07-22T23:03:48;10.20;;;6.65;;
68647;SDS011;55632;51.962;16.116;2023-07-22T23:08:49;13.75;;;7.18;;
68647;SDS011;55632;51.962;16.116;2023-07-22T23:13:51;10.20;;;6.35;;
68647;SDS011;55632;51.962;16.116;2023-07-22T23:18:57;9.50;;;6.45;;
68647;SDS011;55632;51.962;16.116;2023-07-22T23:24:01;14.50;;;6.25;;
68647;SDS011;55632;51.962;16.116;2023-07-22T23:29:05;9.02;;;6.10;;
68647;SDS011;55632;51.962;16.116;2023-07-22T23:34:07;8.43;;;6.00;;
68647;SDS011;55632;51.962;16.116;2023-07-22T23:39:08;7.53;;;5.15;;
68647;SDS011;55632;51.962;16.116;2023-07-22T23:44:08;11.40;;;5.78;;
68647;SDS011;55632;51.962;16.116;2023-07-22T23:49:09;7.50;;;5.13;;
68647;SDS011;55632;51.962;16.116;2023-07-22T23:54:11;7.78;;;5.65;;
68647;SDS011;55632;51.962;16.116;2023-07-22T23:59:13;8.93;;;5.47;;
